createdAt,value
2022-11-10T00:03:17.109Z,98991.07
2022-11-10T00:06:52.156Z,98992.37
2022-11-10T00:10:27.401Z,98994.16
2022-11-10T00:14:24.897Z,98995.00
2022-11-10T00:17:58.814Z,99005.03
2022-11-10T00:21:32.780Z,99007.67
2022-11-10T00:25:06.811Z,99006.30
2022-11-10T00:28:44.412Z,99008.80
2022-11-10T00:32:18.737Z,99002.39
2022-11-10T00:35:52.822Z,98998.91
2022-11-10T00:39:26.850Z,98997.13
2022-11-10T00:43:00.599Z,99002.39
2022-11-10T00:46:34.333Z,99001.42
2022-11-10T00:50:08.249Z,99003.73
2022-11-10T00:53:42.832Z,99015.74
2022-11-10T00:57:16.927Z,99020.01
2022-11-10T01:00:51.682Z,99015.83
2022-11-10T01:04:26.014Z,99019.88
2022-11-10T01:08:02.747Z,99013.92
2022-11-10T01:11:37.666Z,99020.56
2022-11-10T01:15:12.991Z,99023.95
2022-11-10T01:18:49.593Z,99026.22
2022-11-10T01:22:23.780Z,99021.83
2022-11-10T01:25:57.711Z,99018.53
2022-11-10T01:29:32.078Z,99023.11
2022-11-10T01:33:08.576Z,99023.64
2022-11-10T01:36:42.520Z,99025.36
2022-11-10T01:40:20.399Z,99030.20
2022-11-10T01:43:54.523Z,99027.89
2022-11-10T01:47:28.516Z,99039.97
2022-11-10T01:51:05.095Z,99040.95
2022-11-10T01:54:42.939Z,99038.62
2022-11-10T01:58:17.708Z,99043.08
2022-11-10T02:01:54.346Z,99044.31
2022-11-10T02:05:30.442Z,99049.58
2022-11-10T02:09:05.785Z,99054.61
2022-11-10T02:12:43.597Z,99051.85
2022-11-10T02:16:19.051Z,99043.17
2022-11-10T02:19:53.336Z,99049.00
2022-11-10T02:23:54.250Z,99053.45
2022-11-10T02:27:28.204Z,99056.75
2022-11-10T02:31:03.368Z,99058.54
2022-11-10T02:34:37.252Z,99064.02
2022-11-10T02:38:11.303Z,99065.77
2022-11-10T02:41:45.126Z,99069.44
2022-11-10T02:45:20.092Z,99066.77
2022-11-10T02:48:54.131Z,99071.83
2022-11-10T02:52:28.366Z,99068.06
2022-11-10T02:56:02.205Z,99068.60
2022-11-10T02:59:39.226Z,99065.38
2022-11-10T03:03:13.145Z,99074.47
2022-11-10T03:06:47.354Z,99072.25
2022-11-10T03:10:21.986Z,99069.61
2022-11-10T03:17:38.428Z,99083.98
2022-11-10T03:21:12.643Z,99092.27
2022-11-10T03:24:46.863Z,99086.84
2022-11-10T03:28:21.331Z,99090.48
2022-11-10T03:31:58.166Z,99088.98
2022-11-10T03:35:32.188Z,99086.84
2022-11-10T03:39:06.417Z,99086.02
2022-11-10T03:42:41.089Z,99096.57
2022-11-10T03:46:15.571Z,99103.66
2022-11-10T03:49:49.594Z,99100.34
2022-11-10T03:53:23.682Z,99099.80
2022-11-10T04:00:19.049Z,99107.02
2022-11-10T04:03:52.912Z,99111.85
2022-11-10T04:07:55.252Z,99110.72
2022-11-10T04:11:43.594Z,99111.10
2022-11-10T04:15:32.796Z,99112.48
2022-11-10T04:19:06.983Z,99121.90
2022-11-10T04:22:55.384Z,99122.27
2022-11-10T04:29:45.729Z,99121.36
2022-11-10T04:33:20.016Z,99129.52
2022-11-10T04:36:54.220Z,99124.78
2022-11-10T04:40:29.050Z,99129.58
2022-11-10T04:44:29.907Z,99128.00
2022-11-10T04:48:03.935Z,99122.27
2022-11-10T04:51:41.488Z,99120.98
2022-11-10T04:55:17.108Z,99128.73
2022-11-10T05:02:06.704Z,99125.65
2022-11-10T05:05:42.541Z,99144.97
2022-11-10T05:09:18.545Z,99141.85
2022-11-10T05:12:52.751Z,99153.91
2022-11-10T05:16:27.873Z,99165.69
2022-11-10T05:20:01.960Z,99163.73
2022-11-10T05:23:47.317Z,99161.22
2022-11-10T05:27:21.553Z,99157.31
2022-11-10T05:30:55.877Z,99164.09
2022-11-10T05:34:30.166Z,99182.42
2022-11-10T05:38:03.965Z,99176.81
2022-11-10T05:41:37.981Z,99185.27
2022-11-10T05:45:13.640Z,99197.81
2022-11-10T05:48:47.588Z,99189.73
2022-11-10T05:52:22.064Z,99200.81
2022-11-10T05:55:56.243Z,99205.48
2022-11-10T05:59:30.422Z,99212.43
2022-11-10T06:03:09.958Z,99220.35
2022-11-10T06:06:44.373Z,99223.81
2022-11-10T06:10:19.607Z,99239.66
2022-11-10T06:13:53.876Z,99235.19
2022-11-10T06:17:27.896Z,99242.66
2022-11-10T06:21:02.139Z,99250.59
2022-11-10T06:24:40.226Z,99259.85
2022-11-10T06:28:15.883Z,99269.31
2022-11-10T06:31:50.041Z,99279.88
2022-11-10T06:35:25.112Z,99281.14
2022-11-10T06:38:59.810Z,99291.41
2022-11-10T06:42:34.194Z,99304.47
2022-11-10T06:46:08.696Z,99302.52
2022-11-10T06:49:44.390Z,99304.02
2022-11-10T06:53:23.015Z,99319.02
2022-11-10T06:56:55.055Z,99320.59
2022-11-10T07:00:30.623Z,99325.15
2022-11-10T07:04:19.331Z,99323.16
2022-11-10T07:07:42.119Z,99333.20
2022-11-10T07:11:16.539Z,99336.16
2022-11-10T07:14:52.695Z,99344.61
2022-11-10T07:18:27.336Z,99351.56
2022-11-10T07:22:02.662Z,99361.44
2022-11-10T07:25:42.173Z,99362.13
2022-11-10T07:29:16.376Z,99366.28
2022-11-10T07:32:51.159Z,99367.09
2022-11-10T07:36:29.673Z,99373.36
2022-11-10T07:40:04.119Z,99372.53
2022-11-10T07:43:39.387Z,99374.36
2022-11-10T07:47:13.519Z,99373.23
2022-11-10T07:50:47.684Z,99378.52
2022-11-10T07:54:24.508Z,99382.78
2022-11-10T07:57:58.441Z,99394.64
2022-11-10T08:01:37.105Z,99389.58
2022-11-10T08:05:13.329Z,99388.50
2022-11-10T08:08:47.458Z,99398.48
2022-11-10T08:12:22.908Z,99398.03
2022-11-10T08:15:59.848Z,99401.12
2022-11-10T08:19:34.204Z,99412.91
2022-11-10T08:23:10.257Z,99421.91
2022-11-10T08:26:44.585Z,99425.59
2022-11-10T08:30:20.781Z,99431.72
2022-11-10T08:33:55.433Z,99433.39
2022-11-10T08:37:33.158Z,99439.88
2022-11-10T08:41:07.343Z,99450.81
2022-11-10T08:44:41.399Z,99453.46
2022-11-10T08:48:19.160Z,99450.38
2022-11-10T08:51:53.208Z,99460.51
2022-11-10T08:55:27.836Z,99458.68
2022-11-10T08:59:02.232Z,99467.05
2022-11-10T09:02:36.266Z,99469.03
2022-11-10T09:06:10.674Z,99474.70
2022-11-10T09:09:56.988Z,99481.34
2022-11-10T09:13:29.038Z,99499.08
2022-11-10T09:16:59.716Z,99491.47
2022-11-10T09:20:37.835Z,99502.13
2022-11-10T09:24:13.368Z,99511.10
2022-11-10T09:27:48.015Z,99514.47
2022-11-10T09:31:22.483Z,99514.03
2022-11-10T09:34:57.047Z,99510.63
2022-11-10T09:38:31.995Z,99508.51
2022-11-10T09:42:06.158Z,99517.10
2022-11-10T09:45:43.740Z,99510.55
2022-11-10T09:49:26.780Z,99513.72
2022-11-10T09:53:02.174Z,99515.89
2022-11-10T09:56:42.261Z,99516.05
2022-11-10T10:00:24.080Z,99522.40
2022-11-10T10:04:03.801Z,99526.71
2022-11-10T10:07:43.889Z,99536.00
2022-11-10T10:16:46.505Z,99541.73
2022-11-10T10:20:25.612Z,99549.59
2022-11-10T10:24:15.268Z,99551.75
2022-11-10T10:27:45.703Z,99553.30
2022-11-10T10:31:27.002Z,99551.83
2022-11-10T10:35:01.195Z,99555.16
2022-11-10T10:38:39.497Z,99570.06
2022-11-10T10:48:50.443Z,99569.65
2022-11-10T10:52:26.046Z,99573.47
2022-11-10T10:56:07.670Z,99575.38
2022-11-10T10:59:42.222Z,99577.86
2022-11-10T11:03:22.892Z,99577.39
2022-11-10T11:07:06.155Z,99573.96
2022-11-10T11:10:43.988Z,99587.05
2022-11-10T11:14:29.908Z,99593.03
2022-11-10T11:18:16.805Z,99588.38
2022-11-10T11:22:09.855Z,99591.42
2022-11-10T11:25:48.120Z,99587.45
2022-11-10T11:29:36.026Z,99597.43
2022-11-10T11:33:44.962Z,99599.91
2022-11-10T11:37:24.487Z,99598.77
2022-11-10T11:41:05.528Z,99599.12
2022-11-10T11:45:00.035Z,99603.13
2022-11-10T11:48:50.161Z,99595.31
2022-11-10T11:52:31.683Z,99605.45
2022-11-10T11:56:20.545Z,99620.38
2022-11-10T12:00:16.252Z,99621.06
2022-11-10T12:04:12.475Z,99621.06
2022-11-10T12:07:56.134Z,99629.50
2022-11-10T12:11:37.547Z,99623.56
2022-11-10T12:15:22.039Z,99615.47
2022-11-10T12:19:06.675Z,99624.08
2022-11-10T12:22:46.346Z,99633.53
2022-11-10T12:26:26.741Z,99635.03
2022-11-10T12:30:06.561Z,99632.90
2022-11-10T12:33:47.416Z,99648.67
2022-11-10T12:37:30.684Z,99642.69
2022-11-10T12:41:13.480Z,99645.86
2022-11-10T12:44:58.815Z,99649.66
2022-11-10T12:48:36.962Z,99652.61
2022-11-10T12:52:18.538Z,99663.08
2022-11-10T12:56:02.642Z,99664.58
2022-11-10T12:59:43.023Z,99657.01
2022-11-10T13:03:31.196Z,99661.98
2022-11-10T13:07:24.130Z,99661.16
2022-11-10T13:11:12.941Z,99671.44
2022-11-10T13:14:51.329Z,99668.95
2022-11-10T13:19:07.611Z,99680.08
2022-11-10T13:22:50.408Z,99681.41
2022-11-10T13:26:58.728Z,99694.67
2022-11-10T13:31:00.536Z,99700.14
2022-11-10T13:34:51.437Z,99697.14
2022-11-10T13:38:46.736Z,99713.57
2022-11-10T13:42:35.801Z,99711.22
2022-11-10T13:46:15.607Z,99719.05
2022-11-10T13:50:04.144Z,99723.33
2022-11-10T13:53:46.245Z,99724.83
2022-11-10T13:57:34.094Z,99724.34
2022-11-10T14:01:34.703Z,99727.13
2022-11-10T14:05:13.612Z,99720.27
2022-11-10T14:08:58.379Z,99722.07
2022-11-10T14:12:54.340Z,99729.38
2022-11-10T14:16:32.074Z,99735.66
2022-11-10T14:20:06.230Z,99742.41
2022-11-10T14:23:46.632Z,99748.39
2022-11-10T14:27:28.620Z,99749.20
2022-11-10T14:31:05.104Z,99755.98
2022-11-10T14:34:45.564Z,99769.38
2022-11-10T14:38:29.250Z,99776.51
2022-11-10T14:42:06.644Z,99773.50
2022-11-10T14:45:42.106Z,99775.09
2022-11-10T14:49:17.756Z,99772.77
2022-11-10T14:52:56.818Z,99770.56
2022-11-10T14:56:35.550Z,99775.34
2022-11-10T15:00:15.017Z,99781.62
2022-11-10T15:03:50.278Z,99783.61
2022-11-10T15:07:25.751Z,99800.33
2022-11-10T15:11:01.671Z,99800.33
2022-11-10T15:14:50.723Z,99810.11
2022-11-10T15:18:37.251Z,99806.08
2022-11-10T15:22:24.505Z,99813.38
2022-11-10T15:25:59.216Z,99821.16
2022-11-10T15:32:54.104Z,99833.80
2022-11-10T15:36:40.617Z,99837.11
2022-11-10T15:40:43.948Z,99835.77
2022-11-10T15:44:26.484Z,99836.61
2022-11-10T15:48:01.349Z,99846.52
2022-11-10T15:51:35.560Z,99855.83
2022-11-10T15:55:10.070Z,99853.33
2022-11-10T15:58:45.863Z,99858.63
2022-11-10T16:02:33.160Z,99862.80
2022-11-10T16:06:14.865Z,99860.46
2022-11-10T16:09:48.771Z,99871.19
2022-11-10T16:13:26.970Z,99881.34
2022-11-10T16:17:03.091Z,99880.37
2022-11-10T16:20:36.591Z,99878.54
2022-11-10T16:24:10.929Z,99885.83
2022-11-10T16:27:47.041Z,99889.45
2022-11-10T16:31:22.905Z,99903.52
2022-11-10T16:34:57.115Z,99906.02
2022-11-10T16:38:33.918Z,99909.52
2022-11-10T16:42:08.144Z,99906.34
2022-11-10T16:45:44.649Z,99917.22
2022-11-10T16:49:30.066Z,99912.77
2022-11-10T16:53:05.055Z,99926.84
2022-11-10T16:56:39.295Z,99925.86
2022-11-10T17:00:17.061Z,99937.98
2022-11-10T17:03:57.523Z,99947.29
2022-11-10T17:07:34.776Z,99961.39
2022-11-10T17:11:11.701Z,99971.02
2022-11-10T17:14:45.850Z,99978.27
2022-11-10T17:18:25.700Z,99985.53
2022-11-10T17:22:01.097Z,99990.01
2022-11-10T17:25:44.355Z,99996.28
2022-11-10T17:29:38.016Z,99988.64
2022-11-10T17:33:13.369Z,100008.22
2022-11-10T17:36:47.394Z,100001.44
2022-11-10T17:40:29.439Z,100003.11
2022-11-10T17:44:03.799Z,100005.06
2022-11-10T17:47:38.151Z,100013.98
2022-11-10T17:51:19.421Z,100012.86
2022-11-10T17:54:55.670Z,100009.54
2022-11-10T17:58:31.473Z,100018.73
2022-11-10T18:02:06.891Z,100028.12
2022-11-10T18:05:46.830Z,100032.47
2022-11-10T18:09:21.349Z,100040.02
2022-11-10T18:12:55.422Z,100040.98
2022-11-10T18:16:29.747Z,100042.83
2022-11-10T18:20:03.753Z,100040.75
2022-11-10T18:23:38.870Z,100035.45
2022-11-10T18:27:57.395Z,100037.13
2022-11-10T18:31:31.833Z,100036.58
2022-11-10T18:35:17.538Z,100034.20
2022-11-10T18:39:23.555Z,100044.64
2022-11-10T18:43:08.527Z,100048.69
2022-11-10T18:46:42.271Z,100044.22
2022-11-10T18:50:20.759Z,100051.04
2022-11-10T18:53:55.019Z,100060.81
2022-11-10T18:57:29.762Z,100065.66
2022-11-10T19:01:11.918Z,100069.86
2022-11-10T19:04:49.672Z,100070.83
2022-11-10T19:08:23.279Z,100073.18
2022-11-10T19:11:57.611Z,100085.59
2022-11-10T19:16:00.754Z,100080.97
2022-11-10T19:19:34.788Z,100080.57
2022-11-10T19:23:08.889Z,100081.42
2022-11-10T19:26:42.664Z,100076.95
2022-11-10T19:30:19.995Z,100076.55
2022-11-10T19:33:56.135Z,100084.34
2022-11-10T19:37:34.328Z,100090.09
2022-11-10T19:41:08.212Z,100093.30
2022-11-10T19:47:58.164Z,100106.80
2022-11-10T19:51:33.833Z,100107.91
2022-11-10T19:55:08.015Z,100114.73
2022-11-10T19:58:44.987Z,100115.17
2022-11-10T20:02:20.962Z,100119.75
2022-11-10T20:05:56.979Z,100120.45
2022-11-10T20:09:33.950Z,100125.17
2022-11-10T20:13:09.656Z,100128.37
2022-11-10T20:16:44.760Z,100128.52
2022-11-10T20:20:21.418Z,100135.73
2022-11-10T20:25:07.359Z,100146.58
2022-11-10T20:29:22.819Z,100153.69
2022-11-10T20:32:57.099Z,100150.47
2022-11-10T20:36:38.123Z,100150.76
2022-11-10T20:40:43.014Z,100163.55
2022-11-10T20:47:08.778Z,100171.42
2022-11-10T20:50:44.877Z,100177.53
2022-11-10T20:54:19.628Z,100183.93
2022-11-10T20:57:54.662Z,100184.07
2022-11-10T21:01:29.073Z,100164.56
2022-11-10T21:05:03.201Z,100166.63
2022-11-10T21:08:38.640Z,100172.88
2022-11-10T21:12:27.096Z,100165.34
2022-11-10T21:16:07.083Z,100169.36
2022-11-10T21:19:43.662Z,100183.11
2022-11-10T21:23:18.104Z,100184.59
2022-11-10T21:26:57.749Z,100186.41
2022-11-10T21:30:32.288Z,100174.55
2022-11-10T21:34:09.248Z,100192.45
2022-11-10T21:37:44.300Z,100188.03
2022-11-10T21:41:21.052Z,100179.39
2022-11-10T21:44:56.736Z,100190.67
2022-11-10T21:48:31.240Z,100198.33
2022-11-10T21:52:05.424Z,100192.52
2022-11-10T21:55:42.281Z,100187.48
2022-11-10T21:59:16.719Z,100194.72
2022-11-10T22:02:51.209Z,100197.94
2022-11-10T22:06:28.755Z,100194.72
2022-11-10T22:10:32.418Z,100197.36
2022-11-10T22:17:39.304Z,100199.63
2022-11-10T22:21:14.586Z,100206.83
2022-11-10T22:24:48.680Z,100204.19
2022-11-10T22:31:43.198Z,100205.42
2022-11-10T22:35:20.446Z,100210.71
2022-11-10T22:38:59.203Z,100205.42
2022-11-10T22:42:45.063Z,100211.81
2022-11-10T22:47:01.181Z,100216.23
2022-11-10T22:50:34.983Z,100219.73
2022-11-10T22:54:09.929Z,100221.52
2022-11-10T22:57:43.830Z,100221.66
2022-11-10T23:01:45.843Z,100227.91
2022-11-10T23:05:20.462Z,100223.86
2022-11-10T23:08:54.614Z,100229.66
2022-11-10T23:12:28.983Z,100228.22
2022-11-10T23:16:06.476Z,100228.48
2022-11-10T23:19:40.353Z,100234.01
2022-11-10T23:23:14.093Z,100238.46
2022-11-10T23:26:48.027Z,100222.54
2022-11-10T23:30:24.987Z,100224.91
2022-11-10T23:34:01.476Z,100222.05
2022-11-10T23:37:35.680Z,100227.11
2022-11-10T23:41:11.833Z,100224.73
2022-11-10T23:44:45.853Z,100221.86
2022-11-10T23:48:20.575Z,100226.95
2022-11-10T23:51:54.767Z,100234.59
2022-11-10T23:55:28.536Z,100237.96
2022-11-10T23:59:03.015Z,100244.45
